createdAt,value
2022-10-31T00:01:40.166Z,3.92
2022-10-31T00:04:25.572Z,3.83
2022-10-31T00:07:10.959Z,4.18
2022-10-31T00:09:56.214Z,4.15
2022-10-31T00:12:41.701Z,4.25
2022-10-31T00:15:27.054Z,5.20
2022-10-31T00:18:12.547Z,3.70
2022-10-31T00:21:04.672Z,3.97
2022-10-31T00:23:50.238Z,4.22
2022-10-31T00:26:35.732Z,3.92
2022-10-31T00:29:21.147Z,4.75
2022-10-31T00:32:06.477Z,4.88
2022-10-31T00:34:51.822Z,4.88
2022-10-31T00:37:37.202Z,4.68
2022-10-31T00:40:22.811Z,4.22
2022-10-31T00:43:08.177Z,3.70
2022-10-31T00:45:53.496Z,5.18
2022-10-31T00:48:38.903Z,5.18
2022-10-31T00:51:24.331Z,3.78
2022-10-31T00:54:09.802Z,4.25
2022-10-31T00:56:55.136Z,7.60
2022-10-31T00:59:40.576Z,6.05
2022-10-31T01:02:26.274Z,5.60
2022-10-31T01:05:12.769Z,4.45
2022-10-31T01:07:57.936Z,4.95
2022-10-31T01:10:43.300Z,4.57
2022-10-31T01:13:28.719Z,4.72
2022-10-31T01:16:20.318Z,3.78
2022-10-31T01:19:05.858Z,3.40
2022-10-31T01:21:51.036Z,4.32
2022-10-31T01:24:36.501Z,3.83
2022-10-31T01:27:21.864Z,4.13
2022-10-31T01:30:07.783Z,4.05
2022-10-31T01:32:53.232Z,3.38
2022-10-31T01:35:38.572Z,3.42
2022-10-31T01:38:24.367Z,4.18
2022-10-31T01:41:12.282Z,4.00
2022-10-31T01:44:04.042Z,3.83
2022-10-31T01:46:52.284Z,3.28
2022-10-31T01:49:43.513Z,3.65
2022-10-31T01:52:36.383Z,4.20
2022-10-31T01:55:35.601Z,4.20
2022-10-31T01:58:24.649Z,3.90
2022-10-31T02:01:10.696Z,4.50
2022-10-31T02:03:56.615Z,3.83
2022-10-31T02:07:14.313Z,4.70
2022-10-31T02:10:01.161Z,4.57
2022-10-31T02:12:48.021Z,3.20
2022-10-31T02:15:33.805Z,3.47
2022-10-31T02:18:20.218Z,3.30
2022-10-31T02:21:10.515Z,4.40
2022-10-31T02:24:24.714Z,3.92
2022-10-31T02:27:15.677Z,4.40
2022-10-31T02:30:19.294Z,4.00
2022-10-31T02:33:14.735Z,4.03
2022-10-31T02:36:06.011Z,3.42
2022-10-31T02:39:21.569Z,4.87
2022-10-31T02:42:17.376Z,3.63
2022-10-31T02:45:16.635Z,3.97
2022-10-31T02:48:09.513Z,3.70
2022-10-31T02:50:59.294Z,2.90
2022-10-31T02:53:44.626Z,4.13
2022-10-31T02:56:30.149Z,3.70
2022-10-31T02:59:15.990Z,3.40
2022-10-31T03:02:01.361Z,4.40
2022-10-31T03:04:51.487Z,3.33
2022-10-31T03:08:18.711Z,4.25
2022-10-31T03:11:07.163Z,3.47
2022-10-31T03:14:01.453Z,3.60
2022-10-31T03:16:49.629Z,3.33
2022-10-31T03:19:40.720Z,4.88
2022-10-31T03:22:30.198Z,4.63
2022-10-31T03:25:15.878Z,4.30
2022-10-31T03:28:04.033Z,3.40
2022-10-31T03:30:51.729Z,3.47
2022-10-31T03:33:40.048Z,3.33
2022-10-31T03:36:26.909Z,3.67
2022-10-31T03:39:15.468Z,3.50
2022-10-31T03:42:09.032Z,3.55
2022-10-31T03:44:59.028Z,3.30
2022-10-31T03:47:45.349Z,2.90
2022-10-31T03:50:45.576Z,4.15
2022-10-31T03:53:40.434Z,3.65
2022-10-31T03:56:30.585Z,4.18
2022-10-31T03:59:22.333Z,3.92
2022-10-31T04:02:15.944Z,4.00
2022-10-31T04:05:02.263Z,3.60
2022-10-31T04:07:50.179Z,4.80
2022-10-31T04:10:38.643Z,3.83
2022-10-31T04:13:34.046Z,3.75
2022-10-31T04:16:19.963Z,3.90
2022-10-31T04:19:05.406Z,3.58
2022-10-31T04:21:50.801Z,3.60
2022-10-31T04:24:40.224Z,3.47
2022-10-31T04:27:25.439Z,4.75
2022-10-31T04:30:11.147Z,3.42
2022-10-31T04:32:56.524Z,3.20
2022-10-31T04:35:42.085Z,2.90
2022-10-31T04:38:27.484Z,3.50
2022-10-31T04:41:12.779Z,3.67
2022-10-31T04:43:58.183Z,4.20
2022-10-31T04:46:43.547Z,3.00
2022-10-31T04:49:28.849Z,3.53
2022-10-31T04:52:15.187Z,3.90
2022-10-31T04:55:00.247Z,3.78
2022-10-31T04:57:47.778Z,3.63
2022-10-31T05:00:33.084Z,3.40
2022-10-31T05:03:18.553Z,3.30
2022-10-31T05:06:03.998Z,3.40
2022-10-31T05:08:49.301Z,2.88
2022-10-31T05:11:34.790Z,3.65
2022-10-31T05:14:20.095Z,3.50
2022-10-31T05:17:05.541Z,3.50
2022-10-31T05:19:50.827Z,3.42
2022-10-31T05:22:36.252Z,4.47
2022-10-31T05:25:24.728Z,4.00
2022-10-31T05:28:09.759Z,4.22
2022-10-31T05:30:55.198Z,3.45
2022-10-31T05:33:40.494Z,3.15
2022-10-31T05:36:25.896Z,3.50
2022-10-31T05:39:11.380Z,4.25
2022-10-31T05:41:56.757Z,3.40
2022-10-31T05:44:42.216Z,4.15
2022-10-31T05:47:28.890Z,3.35
2022-10-31T05:50:13.969Z,3.42
2022-10-31T05:53:01.684Z,3.13
2022-10-31T05:55:47.264Z,3.65
2022-10-31T05:58:32.590Z,3.38
2022-10-31T06:01:18.079Z,3.20
2022-10-31T06:04:03.384Z,4.05
2022-10-31T06:06:48.822Z,3.17
2022-10-31T06:09:34.230Z,3.00
2022-10-31T06:12:19.587Z,3.10
2022-10-31T06:15:08.853Z,3.58
2022-10-31T06:18:05.449Z,3.92
2022-10-31T06:20:51.373Z,3.50
2022-10-31T06:23:36.357Z,3.70
2022-10-31T06:26:21.816Z,3.13
2022-10-31T06:29:07.066Z,3.63
2022-10-31T06:31:53.107Z,3.47
2022-10-31T06:34:38.892Z,4.68
2022-10-31T06:37:24.117Z,3.20
2022-10-31T06:40:10.120Z,3.10
2022-10-31T06:43:00.424Z,3.35
2022-10-31T06:45:45.673Z,3.58
2022-10-31T06:48:31.409Z,2.63
2022-10-31T06:51:16.438Z,3.35
2022-10-31T06:54:01.964Z,3.92
2022-10-31T06:56:50.686Z,3.70
2022-10-31T06:59:35.776Z,3.35
2022-10-31T07:02:21.184Z,3.80
2022-10-31T07:05:06.740Z,3.17
2022-10-31T07:08:13.167Z,4.15
2022-10-31T07:10:58.887Z,3.80
2022-10-31T07:13:44.270Z,4.20
2022-10-31T07:16:29.627Z,4.20
2022-10-31T07:19:15.035Z,3.70
2022-10-31T07:22:00.445Z,4.05
2022-10-31T07:24:45.869Z,3.85
2022-10-31T07:27:41.643Z,3.25
2022-10-31T07:30:28.197Z,3.42
2022-10-31T07:33:13.695Z,3.92
2022-10-31T07:35:59.121Z,4.15
2022-10-31T07:38:44.594Z,4.65
2022-10-31T07:41:29.905Z,11.15
2022-10-31T07:44:15.430Z,6.60
2022-10-31T07:47:00.799Z,7.00
2022-10-31T07:49:46.216Z,5.43
2022-10-31T07:52:31.649Z,5.72
2022-10-31T07:55:17.084Z,4.80
2022-10-31T07:58:04.451Z,5.03
2022-10-31T08:00:50.123Z,4.82
2022-10-31T08:03:35.503Z,4.85
2022-10-31T08:06:20.889Z,4.30
2022-10-31T08:09:06.248Z,4.53
2022-10-31T08:11:51.607Z,5.05
2022-10-31T08:14:37.158Z,5.28
2022-10-31T08:17:22.493Z,5.10
2022-10-31T08:20:08.542Z,6.72
2022-10-31T08:22:59.288Z,5.90
2022-10-31T08:25:44.556Z,5.50
2022-10-31T08:28:29.736Z,5.90
2022-10-31T08:31:15.107Z,4.82
2022-10-31T08:34:00.579Z,5.38
2022-10-31T08:36:47.125Z,5.90
2022-10-31T08:39:32.169Z,4.70
2022-10-31T08:42:17.629Z,5.30
2022-10-31T08:45:03.530Z,6.85
2022-10-31T08:47:48.625Z,4.78
2022-10-31T08:50:35.866Z,4.80
2022-10-31T08:53:21.029Z,4.60
2022-10-31T08:56:06.702Z,4.85
2022-10-31T08:58:54.285Z,5.03
2022-10-31T09:01:39.550Z,4.93
2022-10-31T09:04:24.977Z,4.38
2022-10-31T09:07:25.564Z,4.80
2022-10-31T09:10:10.775Z,5.65
2022-10-31T09:13:17.815Z,4.43
2022-10-31T09:16:03.041Z,4.63
2022-10-31T09:18:48.435Z,5.07
2022-10-31T09:21:33.837Z,5.25
2022-10-31T09:24:19.223Z,4.82
2022-10-31T09:27:04.646Z,5.75
2022-10-31T09:29:49.861Z,5.45
2022-10-31T09:32:35.240Z,4.22
2022-10-31T09:35:24.689Z,4.32
2022-10-31T09:38:16.965Z,4.38
2022-10-31T09:41:08.101Z,4.97
2022-10-31T09:44:14.061Z,4.70
2022-10-31T09:47:20.698Z,3.92
2022-10-31T09:50:22.858Z,3.88
2022-10-31T09:53:26.721Z,6.18
2022-10-31T09:56:18.891Z,4.50
2022-10-31T10:02:02.721Z,4.57
2022-10-31T10:05:00.852Z,4.28
2022-10-31T10:08:11.694Z,6.35
2022-10-31T10:11:20.239Z,4.00
2022-10-31T10:14:24.163Z,4.35
2022-10-31T10:17:43.282Z,3.97
2022-10-31T10:21:06.443Z,3.92
2022-10-31T10:24:10.661Z,3.83
2022-10-31T10:27:23.369Z,4.22
2022-10-31T10:30:16.385Z,4.22
2022-10-31T10:35:55.783Z,5.10
2022-10-31T10:39:01.603Z,4.28
2022-10-31T10:42:08.702Z,4.50
2022-10-31T10:45:13.281Z,3.92
2022-10-31T10:48:10.676Z,3.90
2022-10-31T10:50:55.903Z,4.43
2022-10-31T10:54:04.163Z,4.45
2022-10-31T10:56:59.049Z,6.22
2022-10-31T10:59:44.771Z,4.07
2022-10-31T11:02:33.326Z,4.32
2022-10-31T11:05:35.473Z,4.57
2022-10-31T11:08:27.411Z,5.38
2022-10-31T11:11:19.109Z,4.47
2022-10-31T11:14:16.272Z,4.17
2022-10-31T11:17:18.527Z,4.00
2022-10-31T11:23:24.634Z,4.65
2022-10-31T11:26:21.696Z,3.65
2022-10-31T11:29:13.523Z,3.97
2022-10-31T11:32:01.391Z,5.50
2022-10-31T11:34:56.383Z,3.85
2022-10-31T11:37:45.310Z,4.45
2022-10-31T11:40:30.733Z,4.75
2022-10-31T11:43:19.244Z,6.25
2022-10-31T11:46:13.077Z,4.15
2022-10-31T11:48:58.367Z,3.53
2022-10-31T11:51:44.178Z,4.22
2022-10-31T11:54:35.404Z,4.90
2022-10-31T11:57:32.778Z,4.28
2022-10-31T12:00:34.309Z,4.43
2022-10-31T12:03:42.565Z,4.40
2022-10-31T12:06:35.352Z,4.80
2022-10-31T12:09:24.481Z,5.45
2022-10-31T12:12:41.309Z,4.18
2022-10-31T12:15:29.324Z,3.85
2022-10-31T12:18:32.592Z,4.53
2022-10-31T12:22:02.398Z,5.03
2022-10-31T12:25:22.632Z,3.85
2022-10-31T12:28:26.607Z,4.13
2022-10-31T12:31:26.909Z,3.70
2022-10-31T12:34:36.877Z,4.45
2022-10-31T12:37:34.268Z,4.10
2022-10-31T12:40:44.476Z,4.07
2022-10-31T12:43:53.966Z,4.65
2022-10-31T12:47:25.773Z,4.70
2022-10-31T12:50:36.080Z,3.72
2022-10-31T12:53:46.410Z,4.80
2022-10-31T12:56:46.387Z,4.13
2022-10-31T12:59:40.682Z,4.32
2022-10-31T13:02:40.812Z,3.83
2022-10-31T13:05:32.856Z,4.03
2022-10-31T13:08:42.652Z,4.60
2022-10-31T13:11:41.334Z,5.10
2022-10-31T13:14:32.781Z,4.90
2022-10-31T13:17:28.793Z,4.83
2022-10-31T13:20:24.273Z,4.22
2022-10-31T13:23:49.217Z,5.38
2022-10-31T13:26:47.172Z,5.15
2022-10-31T13:29:36.970Z,4.20
2022-10-31T13:32:22.272Z,4.15
2022-10-31T13:35:21.082Z,4.43
2022-10-31T13:38:20.852Z,5.25
2022-10-31T13:41:19.066Z,4.72
2022-10-31T13:44:14.996Z,4.95
2022-10-31T13:47:00.148Z,4.88
2022-10-31T13:49:45.408Z,4.10
2022-10-31T13:52:30.976Z,5.20
2022-10-31T13:56:11.260Z,4.75
2022-10-31T13:59:01.775Z,4.68
2022-10-31T14:01:50.036Z,5.85
2022-10-31T14:04:46.584Z,5.43
2022-10-31T14:07:32.527Z,4.38
2022-10-31T14:10:32.726Z,5.30
2022-10-31T14:13:23.258Z,4.85
2022-10-31T14:16:24.909Z,5.22
2022-10-31T14:19:17.667Z,6.20
2022-10-31T14:22:03.141Z,5.57
2022-10-31T14:24:48.699Z,5.30
2022-10-31T14:27:43.888Z,4.93
2022-10-31T14:30:30.773Z,5.28
2022-10-31T14:33:20.716Z,5.28
2022-10-31T14:36:19.867Z,5.45
2022-10-31T14:39:26.684Z,3.67
2022-10-31T14:42:36.290Z,4.13
2022-10-31T14:46:06.313Z,4.57
2022-10-31T14:49:26.278Z,3.83
2022-10-31T14:52:14.638Z,4.38
2022-10-31T14:55:01.626Z,4.00
2022-10-31T14:57:54.909Z,4.18
2022-10-31T15:00:43.814Z,4.60
2022-10-31T15:03:36.007Z,4.05
2022-10-31T15:06:23.842Z,4.57
2022-10-31T15:09:30.919Z,4.18
2022-10-31T15:12:34.123Z,3.95
2022-10-31T15:15:25.657Z,4.35
2022-10-31T15:18:17.933Z,3.88
2022-10-31T15:21:05.405Z,5.38
2022-10-31T15:23:55.024Z,4.28
2022-10-31T15:26:41.891Z,3.95
2022-10-31T15:29:27.908Z,4.45
2022-10-31T15:32:21.382Z,3.90
2022-10-31T15:35:10.907Z,4.47
2022-10-31T15:37:57.935Z,3.75
2022-10-31T15:40:53.744Z,4.60
2022-10-31T15:43:40.735Z,4.63
2022-10-31T15:46:28.120Z,3.85
2022-10-31T15:49:28.553Z,4.18
2022-10-31T15:52:35.321Z,4.80
2022-10-31T15:55:23.550Z,4.32
2022-10-31T15:58:14.589Z,4.20
2022-10-31T16:01:00.755Z,4.40
2022-10-31T16:03:59.466Z,4.47
2022-10-31T16:06:44.542Z,4.28
2022-10-31T16:09:30.124Z,4.35
2022-10-31T16:12:19.980Z,4.80
2022-10-31T16:15:16.205Z,4.28
2022-10-31T16:18:01.674Z,4.00
2022-10-31T16:20:56.354Z,4.20
2022-10-31T16:23:51.010Z,3.42
2022-10-31T16:26:36.425Z,4.03
2022-10-31T16:29:36.417Z,3.50
2022-10-31T16:32:36.665Z,3.60
2022-10-31T16:35:33.641Z,3.42
2022-10-31T16:38:19.106Z,3.22
2022-10-31T16:41:04.603Z,3.22
2022-10-31T16:43:52.402Z,3.83
2022-10-31T16:46:38.924Z,3.85
2022-10-31T16:49:24.043Z,4.38
2022-10-31T16:52:09.515Z,3.70
2022-10-31T16:54:55.524Z,4.13
2022-10-31T16:57:43.747Z,4.75
2022-10-31T17:00:29.722Z,4.28
2022-10-31T17:03:15.058Z,4.63
2022-10-31T17:06:00.433Z,5.28
2022-10-31T17:08:46.023Z,5.82
2022-10-31T17:11:31.345Z,4.47
2022-10-31T17:14:17.668Z,5.75
2022-10-31T17:17:03.077Z,5.65
2022-10-31T17:19:48.409Z,5.72
2022-10-31T17:22:33.809Z,4.50
2022-10-31T17:25:22.795Z,4.70
2022-10-31T17:28:11.423Z,4.47
2022-10-31T17:30:59.039Z,5.80
2022-10-31T17:33:44.503Z,5.30
2022-10-31T17:36:30.156Z,5.60
2022-10-31T17:39:15.447Z,5.22
2022-10-31T17:42:00.890Z,5.10
2022-10-31T17:44:47.290Z,5.22
2022-10-31T17:47:33.414Z,4.97
2022-10-31T17:50:21.417Z,4.60
2022-10-31T17:53:06.773Z,4.90
2022-10-31T17:55:52.245Z,5.80
2022-10-31T17:58:38.233Z,6.20
2022-10-31T18:01:24.399Z,6.28
2022-10-31T18:04:09.657Z,4.82
2022-10-31T18:06:55.209Z,5.30
2022-10-31T18:09:40.748Z,4.32
2022-10-31T18:12:27.815Z,5.65
2022-10-31T18:15:13.011Z,6.28
2022-10-31T18:17:58.564Z,11.05
2022-10-31T18:20:44.236Z,8.15
2022-10-31T18:23:29.644Z,6.40
2022-10-31T18:26:15.104Z,6.68
2022-10-31T18:29:00.889Z,4.95
2022-10-31T18:31:48.883Z,5.53
2022-10-31T18:34:34.021Z,5.72
2022-10-31T18:37:19.623Z,6.22
2022-10-31T18:40:05.627Z,5.80
2022-10-31T18:42:51.036Z,6.03
2022-10-31T18:45:47.220Z,6.40
2022-10-31T18:48:33.904Z,5.75
2022-10-31T18:51:19.580Z,5.15
2022-10-31T18:54:04.766Z,5.70
2022-10-31T18:56:50.279Z,6.03
2022-10-31T18:59:35.645Z,5.20
2022-10-31T19:02:21.159Z,5.45
2022-10-31T19:05:06.571Z,5.07
2022-10-31T19:07:52.018Z,4.70
2022-10-31T19:10:39.087Z,5.50
2022-10-31T19:13:24.445Z,4.90
2022-10-31T19:16:12.859Z,5.25
2022-10-31T19:18:59.797Z,4.90
2022-10-31T19:21:44.998Z,4.93
2022-10-31T19:24:30.568Z,6.63
2022-10-31T19:27:15.917Z,4.68
2022-10-31T19:30:01.229Z,5.07
2022-10-31T19:32:46.896Z,4.80
2022-10-31T19:35:31.956Z,5.22
2022-10-31T19:38:17.469Z,7.18
2022-10-31T19:41:06.435Z,8.57
2022-10-31T19:43:52.350Z,6.38
2022-10-31T19:46:52.926Z,5.25
2022-10-31T19:49:39.270Z,5.82
2022-10-31T19:52:24.625Z,4.40
2022-10-31T19:55:10.373Z,5.40
2022-10-31T19:58:01.908Z,4.95
2022-10-31T20:00:56.589Z,4.60
2022-10-31T20:03:43.901Z,4.85
2022-10-31T20:06:35.609Z,4.82
2022-10-31T20:09:21.053Z,4.10
2022-10-31T20:12:06.767Z,4.90
2022-10-31T20:14:52.011Z,5.35
2022-10-31T20:17:37.409Z,5.03
2022-10-31T20:20:22.741Z,5.18
2022-10-31T20:23:08.205Z,5.18
2022-10-31T20:25:53.626Z,5.10
2022-10-31T20:28:43.331Z,4.95
2022-10-31T20:31:31.615Z,5.40
2022-10-31T20:34:16.829Z,5.50
2022-10-31T20:37:02.164Z,5.35
2022-10-31T20:39:48.735Z,4.60
2022-10-31T20:42:35.455Z,5.20
2022-10-31T20:45:20.775Z,4.95
2022-10-31T20:48:06.296Z,5.35
2022-10-31T20:50:59.261Z,5.57
2022-10-31T20:53:45.291Z,5.10
2022-10-31T20:56:30.691Z,5.32
2022-10-31T20:59:17.704Z,10.77
2022-10-31T21:02:03.469Z,30.10
2022-10-31T21:04:48.628Z,32.17
2022-10-31T21:07:34.303Z,14.65
2022-10-31T21:10:19.489Z,8.88
2022-10-31T21:13:04.941Z,6.35
2022-10-31T21:16:03.188Z,6.40
2022-10-31T21:18:49.661Z,5.30
2022-10-31T21:21:36.626Z,4.65
2022-10-31T21:24:22.174Z,4.75
2022-10-31T21:27:10.054Z,5.07
2022-10-31T21:29:58.020Z,5.68
2022-10-31T21:32:43.073Z,6.03
2022-10-31T21:35:28.515Z,5.65
2022-10-31T21:38:13.958Z,6.25
2022-10-31T21:41:05.056Z,6.60
2022-10-31T21:43:51.719Z,6.07
2022-10-31T21:46:38.667Z,7.57
2022-10-31T21:49:23.991Z,6.35
2022-10-31T21:52:09.833Z,5.47
2022-10-31T21:54:55.070Z,6.60
2022-10-31T21:57:40.433Z,6.00
2022-10-31T22:00:25.823Z,4.50
2022-10-31T22:03:11.322Z,6.25
2022-10-31T22:06:01.349Z,6.72
2022-10-31T22:08:46.970Z,6.63
2022-10-31T22:11:32.873Z,6.10
2022-10-31T22:14:18.317Z,5.78
2022-10-31T22:17:03.749Z,5.70
2022-10-31T22:19:48.987Z,6.18
2022-10-31T22:22:34.468Z,5.50
2022-10-31T22:25:19.824Z,5.95
2022-10-31T22:28:07.832Z,6.25
2022-10-31T22:30:53.361Z,5.97
2022-10-31T22:33:38.788Z,5.85
2022-10-31T22:36:27.274Z,5.53
2022-10-31T22:39:13.705Z,6.10
2022-10-31T22:41:58.945Z,5.90
2022-10-31T22:44:44.445Z,6.05
2022-10-31T22:50:27.036Z,6.07
2022-10-31T22:53:15.690Z,5.80
2022-10-31T22:56:01.296Z,6.30
2022-10-31T22:58:47.410Z,5.95
2022-10-31T23:01:33.844Z,6.53
2022-10-31T23:04:19.278Z,5.93
2022-10-31T23:07:04.568Z,5.90
2022-10-31T23:09:49.968Z,6.82
2022-10-31T23:13:10.572Z,6.30
2022-10-31T23:15:55.614Z,6.38
2022-10-31T23:18:55.741Z,5.80
2022-10-31T23:21:55.172Z,6.70
2022-10-31T23:24:44.457Z,6.75
2022-10-31T23:27:29.639Z,5.80
2022-10-31T23:30:15.099Z,6.30
2022-10-31T23:33:00.992Z,6.30
2022-10-31T23:35:46.621Z,6.43
2022-10-31T23:38:32.038Z,6.60
2022-10-31T23:41:17.477Z,5.43
2022-10-31T23:44:02.746Z,6.22
2022-10-31T23:46:48.393Z,5.38
2022-10-31T23:49:34.147Z,6.30
2022-10-31T23:52:19.557Z,6.45
2022-10-31T23:55:04.980Z,5.80
2022-10-31T23:57:50.041Z,6.60
